createdAt,value
2019-05-17T00:00:00.345Z,18.50
2019-05-17T00:02:32.275Z,18.33
2019-05-17T00:05:06.743Z,15.73
2019-05-17T00:07:37.574Z,13.80
2019-05-17T00:10:09.590Z,15.93
2019-05-17T00:12:41.248Z,15.53
2019-05-17T00:15:16.722Z,17.10
2019-05-17T00:17:47.298Z,15.60
2019-05-17T00:20:19.422Z,15.27
2019-05-17T00:22:51.178Z,18.27
2019-05-17T00:25:22.979Z,17.93
2019-05-17T00:27:56.406Z,20.70
2019-05-17T00:30:28.250Z,20.03
2019-05-17T00:32:59.784Z,17.53
2019-05-17T00:35:31.812Z,18.83
2019-05-17T00:38:03.637Z,20.40
2019-05-17T00:40:36.668Z,16.63
2019-05-17T00:43:08.414Z,19.33
2019-05-17T00:45:40.213Z,16.13
2019-05-17T00:48:12.031Z,18.67
2019-05-17T00:50:52.361Z,17.70
2019-05-17T00:53:19.115Z,18.97
2019-05-17T00:55:50.992Z,15.70
2019-05-17T00:58:23.052Z,14.50
2019-05-17T01:00:57.101Z,11.73
2019-05-17T01:03:27.916Z,13.73
2019-05-17T01:05:59.710Z,13.67
2019-05-17T01:08:31.683Z,16.03
2019-05-17T01:11:03.614Z,16.27
2019-05-17T01:13:37.221Z,15.67
2019-05-17T01:16:08.744Z,13.60
2019-05-17T01:18:40.455Z,13.53
2019-05-17T01:21:12.866Z,14.93
2019-05-17T01:23:46.684Z,13.70
2019-05-17T01:26:18.404Z,14.10
2019-05-17T01:28:50.284Z,15.13
2019-05-17T01:31:22.106Z,16.43
2019-05-17T01:33:53.759Z,16.83
2019-05-17T01:36:26.344Z,16.27
2019-05-17T01:38:57.981Z,15.63
2019-05-17T01:41:29.680Z,17.17
2019-05-17T01:44:01.546Z,18.07
2019-05-17T01:46:33.418Z,15.77
2019-05-17T01:49:06.853Z,16.90
2019-05-17T01:51:38.398Z,19.10
2019-05-17T01:54:09.920Z,20.97
2019-05-17T01:56:41.845Z,20.03
2019-05-17T01:59:13.912Z,18.97
2019-05-17T02:01:47.396Z,19.13
2019-05-17T02:04:19.297Z,19.17
2019-05-17T02:06:51.025Z,22.00
2019-05-17T02:09:34.947Z,21.97
2019-05-17T02:11:57.144Z,23.17
2019-05-17T02:14:28.897Z,24.00
2019-05-17T02:17:00.603Z,23.17
2019-05-17T02:19:32.361Z,23.07
2019-05-17T02:22:03.714Z,23.00
2019-05-17T02:24:37.040Z,21.40
2019-05-17T02:27:08.552Z,21.53
2019-05-17T02:29:42.360Z,18.87
2019-05-17T02:32:13.708Z,20.77
2019-05-17T02:34:44.806Z,19.27
2019-05-17T02:37:16.614Z,18.47
2019-05-17T02:39:58.042Z,18.33
2019-05-17T02:42:22.478Z,19.23
2019-05-17T02:44:54.408Z,16.37
2019-05-17T02:47:26.182Z,18.90
2019-05-17T02:49:58.133Z,20.07
2019-05-17T02:52:32.891Z,18.67
2019-05-17T02:55:04.271Z,19.93
2019-05-17T02:57:36.057Z,16.83
2019-05-17T03:00:08.290Z,15.90
2019-05-17T03:02:42.850Z,16.00
2019-05-17T03:05:14.240Z,14.97
2019-05-17T03:07:46.293Z,16.37
2019-05-17T03:10:27.564Z,14.97
2019-05-17T03:12:52.941Z,18.47
2019-05-17T03:15:25.226Z,16.93
2019-05-17T03:17:57.149Z,20.37
2019-05-17T03:20:32.376Z,18.17
2019-05-17T03:23:03.986Z,19.30
2019-05-17T03:25:36.336Z,17.10
2019-05-17T03:28:08.286Z,15.20
2019-05-17T03:30:46.804Z,15.67
2019-05-17T03:33:16.942Z,16.43
2019-05-17T03:35:49.445Z,19.60
2019-05-17T03:38:22.813Z,15.43
2019-05-17T03:41:11.943Z,18.67
2019-05-17T03:43:28.006Z,16.53
2019-05-17T03:46:02.894Z,14.97
2019-05-17T03:48:33.695Z,14.67
2019-05-17T03:51:05.198Z,15.80
2019-05-17T03:53:37.274Z,14.13
2019-05-17T03:56:09.316Z,14.23
2019-05-17T03:58:43.408Z,15.10
2019-05-17T04:01:14.723Z,15.33
2019-05-17T04:03:46.385Z,15.00
2019-05-17T04:06:18.130Z,14.17
2019-05-17T04:08:52.621Z,14.80
2019-05-17T04:11:31.376Z,14.90
2019-05-17T04:13:57.248Z,18.17
2019-05-17T04:16:29.125Z,15.67
2019-05-17T04:19:03.229Z,14.17
2019-05-17T04:21:34.799Z,14.30
2019-05-17T04:24:06.659Z,13.97
2019-05-17T04:26:38.718Z,20.17
2019-05-17T04:29:13.256Z,14.80
2019-05-17T04:31:44.147Z,14.90
2019-05-17T04:34:16.177Z,14.13
2019-05-17T04:36:48.126Z,17.20
2019-05-17T04:39:22.416Z,15.50
2019-05-17T04:41:54.862Z,16.00
2019-05-17T04:44:26.945Z,17.33
2019-05-17T04:46:58.615Z,16.73
2019-05-17T04:49:33.038Z,15.00
2019-05-17T04:52:04.343Z,14.37
2019-05-17T04:54:43.938Z,15.53
2019-05-17T04:57:15.842Z,14.67
2019-05-17T04:59:47.695Z,13.77
2019-05-17T05:02:19.583Z,14.37
2019-05-17T05:04:53.308Z,15.93
2019-05-17T05:07:25.283Z,14.53
2019-05-17T05:09:56.976Z,12.27
2019-05-17T05:12:28.642Z,11.80
2019-05-17T05:15:03.206Z,11.80
2019-05-17T05:17:33.993Z,12.43
2019-05-17T05:20:06.323Z,11.13
2019-05-17T05:22:38.283Z,12.70
2019-05-17T05:25:12.348Z,14.73
2019-05-17T05:27:44.456Z,12.27
2019-05-17T05:30:16.454Z,12.07
2019-05-17T05:32:49.123Z,13.10
2019-05-17T05:35:22.459Z,13.33
2019-05-17T05:37:54.888Z,12.87
2019-05-17T05:40:26.910Z,16.27
2019-05-17T05:42:59.224Z,19.50
2019-05-17T05:45:32.081Z,21.63
2019-05-17T05:48:04.765Z,19.57
2019-05-17T05:50:36.690Z,21.63
2019-05-17T05:53:08.482Z,17.27
2019-05-17T05:55:42.822Z,16.20
2019-05-17T05:58:15.149Z,17.13
2019-05-17T06:00:47.365Z,17.30
2019-05-17T06:03:19.436Z,18.67
2019-05-17T06:05:52.530Z,20.13
2019-05-17T06:08:25.341Z,20.20
2019-05-17T06:10:58.196Z,21.47
2019-05-17T06:13:32.469Z,28.50
2019-05-17T06:16:04.262Z,25.10
2019-05-17T06:18:36.198Z,28.37
2019-05-17T06:21:08.340Z,25.77
2019-05-17T06:23:42.330Z,27.03
2019-05-17T06:26:13.953Z,25.43
2019-05-17T06:28:45.861Z,24.00
2019-05-17T06:31:17.745Z,26.67
2019-05-17T06:33:49.610Z,23.83
2019-05-17T06:36:21.839Z,33.80
2019-05-17T06:38:54.090Z,26.80
2019-05-17T06:41:26.596Z,26.93
2019-05-17T06:43:58.496Z,27.27
2019-05-17T06:46:38.056Z,26.70
2019-05-17T06:49:11.799Z,31.27
2019-05-17T06:51:43.732Z,22.27
2019-05-17T06:54:16.472Z,26.90
2019-05-17T06:56:48.510Z,25.43
2019-05-17T06:59:20.506Z,25.60
2019-05-17T07:01:52.669Z,24.87
2019-05-17T07:04:24.992Z,33.87
2019-05-17T07:07:15.847Z,25.20
2019-05-17T07:09:49.663Z,28.97
2019-05-17T07:12:21.588Z,29.97
2019-05-17T07:14:53.558Z,29.00
2019-05-17T07:17:25.719Z,30.27
2019-05-17T07:19:59.760Z,29.63
2019-05-17T07:22:31.917Z,28.70
2019-05-17T07:25:03.793Z,32.33
2019-05-17T07:27:41.463Z,30.10
2019-05-17T07:30:10.252Z,30.67
2019-05-17T07:32:42.201Z,29.80
2019-05-17T07:35:16.101Z,31.17
2019-05-17T07:37:50.139Z,30.60
2019-05-17T07:40:21.864Z,29.00
2019-05-17T07:43:07.075Z,25.40
2019-05-17T07:45:29.445Z,28.23
2019-05-17T07:48:02.624Z,28.80
2019-05-17T07:50:34.594Z,32.10
2019-05-17T07:53:06.467Z,30.17
2019-05-17T07:55:39.828Z,29.07
2019-05-17T07:58:11.997Z,27.83
2019-05-17T08:00:43.980Z,29.90
2019-05-17T08:03:16.107Z,24.10
2019-05-17T08:05:47.807Z,24.77
2019-05-17T08:08:20.768Z,21.73
2019-05-17T08:10:53.073Z,18.07
2019-05-17T08:13:30.317Z,17.10
2019-05-17T08:15:59.539Z,17.30
2019-05-17T08:18:31.537Z,13.30
2019-05-17T08:21:03.557Z,11.60
2019-05-17T08:23:35.993Z,9.13
2019-05-17T08:26:10.482Z,10.13
2019-05-17T08:28:42.026Z,7.80
2019-05-17T08:31:13.711Z,10.13
2019-05-17T08:33:45.809Z,8.83
2019-05-17T08:36:19.977Z,8.10
2019-05-17T08:38:51.382Z,7.93
2019-05-17T08:41:23.749Z,8.80
2019-05-17T08:43:55.772Z,9.10
2019-05-17T08:46:27.861Z,9.13
2019-05-17T08:49:00.543Z,8.87
2019-05-17T08:51:32.594Z,8.27
2019-05-17T08:54:04.495Z,10.27
2019-05-17T08:56:36.423Z,12.87
2019-05-17T08:59:09.607Z,11.37
2019-05-17T09:01:42.052Z,10.53
2019-05-17T09:04:14.095Z,11.40
2019-05-17T09:06:45.931Z,11.00
2019-05-17T09:09:20.397Z,11.23
2019-05-17T09:11:52.449Z,13.60
2019-05-17T09:14:24.771Z,12.60
2019-05-17T09:16:56.943Z,12.63
2019-05-17T09:19:29.953Z,12.73
2019-05-17T09:22:02.587Z,15.17
2019-05-17T09:24:34.510Z,13.83
2019-05-17T09:27:06.627Z,13.07
2019-05-17T09:29:40.385Z,14.03
2019-05-17T09:32:12.254Z,15.07
2019-05-17T09:34:44.272Z,14.00
2019-05-17T09:37:18.960Z,16.00
2019-05-17T09:39:50.157Z,15.13
2019-05-17T09:42:22.081Z,14.97
2019-05-17T09:44:54.034Z,16.10
2019-05-17T09:47:25.861Z,23.73
2019-05-17T09:50:00.275Z,14.63
2019-05-17T09:52:32.503Z,15.93
2019-05-17T09:55:04.595Z,14.67
2019-05-17T09:57:37.040Z,14.13
2019-05-17T10:00:10.839Z,15.27
2019-05-17T10:02:42.717Z,16.50
2019-05-17T10:05:14.896Z,15.00
2019-05-17T10:07:47.427Z,14.70
2019-05-17T10:10:20.386Z,14.67
2019-05-17T10:12:52.673Z,15.27
2019-05-17T10:15:24.960Z,13.30
2019-05-17T10:17:56.988Z,14.13
2019-05-17T10:20:29.318Z,16.73
2019-05-17T10:23:01.551Z,15.03
2019-05-17T10:25:33.861Z,15.57
2019-05-17T10:28:05.983Z,16.70
2019-05-17T10:30:39.921Z,16.20
2019-05-17T10:33:12.068Z,14.30
2019-05-17T10:35:44.232Z,15.23
2019-05-17T10:38:16.359Z,18.47
2019-05-17T10:40:50.059Z,14.40
2019-05-17T10:43:22.214Z,12.40
2019-05-17T10:45:53.911Z,12.57
2019-05-17T10:48:25.688Z,12.40
2019-05-17T10:51:00.123Z,11.40
2019-05-17T10:53:31.620Z,11.00
2019-05-17T10:56:04.010Z,13.20
2019-05-17T10:58:36.125Z,12.77
2019-05-17T11:01:10.254Z,14.63
2019-05-17T11:03:42.360Z,12.90
2019-05-17T11:06:14.499Z,12.93
2019-05-17T11:08:46.543Z,12.57
2019-05-17T11:11:20.113Z,11.00
2019-05-17T11:13:53.122Z,11.67
2019-05-17T11:16:25.434Z,13.87
2019-05-17T11:18:57.766Z,11.23
2019-05-17T11:21:29.872Z,11.93
2019-05-17T11:24:02.503Z,11.40
2019-05-17T11:26:34.609Z,9.10
2019-05-17T11:29:06.906Z,9.93
2019-05-17T11:31:38.690Z,9.90
2019-05-17T11:34:11.974Z,9.50
2019-05-17T11:36:44.315Z,10.57
2019-05-17T11:39:16.305Z,8.00
2019-05-17T11:41:48.500Z,9.10
2019-05-17T11:44:21.882Z,10.07
2019-05-17T11:46:55.882Z,11.57
2019-05-17T11:49:27.779Z,8.33
2019-05-17T11:52:00.101Z,8.47
2019-05-17T11:54:32.316Z,9.90
2019-05-17T11:57:04.257Z,7.90
2019-05-17T11:59:36.462Z,8.87
2019-05-17T12:02:08.923Z,7.70
2019-05-17T12:04:41.158Z,10.07
2019-05-17T12:07:13.643Z,10.57
2019-05-17T12:09:45.585Z,7.43
2019-05-17T12:12:18.592Z,14.40
2019-05-17T12:14:50.425Z,8.77
2019-05-17T12:17:22.153Z,8.10
2019-05-17T12:19:54.619Z,8.03
2019-05-17T12:22:26.539Z,8.83
2019-05-17T12:24:58.770Z,9.83
2019-05-17T12:27:30.711Z,10.47
2019-05-17T12:30:03.017Z,10.50
2019-05-17T12:32:35.042Z,17.97
2019-05-17T12:35:07.160Z,19.60
2019-05-17T12:37:42.219Z,15.53
2019-05-17T12:40:12.907Z,12.43
2019-05-17T12:42:44.873Z,16.30
2019-05-17T12:45:16.704Z,20.10
2019-05-17T12:47:49.444Z,18.37
2019-05-17T12:50:22.323Z,13.10
2019-05-17T12:52:54.880Z,21.27
2019-05-17T12:55:26.950Z,27.07
2019-05-17T12:57:59.239Z,14.53
2019-05-17T13:00:31.507Z,13.20
2019-05-17T13:03:03.814Z,29.67
2019-05-17T13:05:35.652Z,13.17
2019-05-17T13:08:07.837Z,16.67
2019-05-17T13:10:40.529Z,17.83
2019-05-17T13:13:12.751Z,16.97
2019-05-17T13:15:44.963Z,15.23
2019-05-17T13:18:17.055Z,14.47
2019-05-17T13:20:49.582Z,12.10
2019-05-17T13:23:21.977Z,15.70
2019-05-17T13:25:53.793Z,13.57
2019-05-17T13:28:26.000Z,12.90
2019-05-17T13:30:58.304Z,18.97
2019-05-17T13:33:30.415Z,9.17
2019-05-17T13:36:02.092Z,14.73
2019-05-17T13:38:39.425Z,14.80
2019-05-17T13:41:11.713Z,12.10
2019-05-17T13:43:43.831Z,7.87
2019-05-17T13:46:16.166Z,9.03
2019-05-17T13:48:47.809Z,9.30
2019-05-17T13:51:20.003Z,11.17
2019-05-17T13:53:52.135Z,12.43
2019-05-17T13:56:24.395Z,15.93
2019-05-17T13:58:56.665Z,9.53
2019-05-17T14:01:29.191Z,7.20
2019-05-17T14:04:01.487Z,10.97
2019-05-17T14:06:33.866Z,9.30
2019-05-17T14:09:07.331Z,8.27
2019-05-17T14:11:39.384Z,7.40
2019-05-17T14:14:11.572Z,9.63
2019-05-17T14:16:44.250Z,7.50
2019-05-17T14:19:16.223Z,10.70
2019-05-17T14:21:47.897Z,7.60
2019-05-17T14:24:21.421Z,6.37
2019-05-17T14:26:53.516Z,8.47
2019-05-17T14:29:25.691Z,9.60
2019-05-17T14:31:57.681Z,8.00
2019-05-17T14:34:29.368Z,5.97
2019-05-17T14:37:02.792Z,8.33
2019-05-17T14:39:35.065Z,6.20
2019-05-17T14:42:07.613Z,8.43
2019-05-17T14:44:39.658Z,6.77
2019-05-17T14:47:12.162Z,27.47
2019-05-17T14:49:44.204Z,7.57
2019-05-17T14:52:16.134Z,8.33
2019-05-17T14:54:48.571Z,6.83
2019-05-17T14:57:20.740Z,5.50
2019-05-17T14:59:52.518Z,5.77
2019-05-17T15:02:24.395Z,5.50
2019-05-17T15:04:56.195Z,8.57
2019-05-17T15:07:28.414Z,9.07
2019-05-17T15:10:00.317Z,11.83
2019-05-17T15:12:32.754Z,10.93
2019-05-17T15:15:05.378Z,16.93
2019-05-17T15:17:37.527Z,7.40
2019-05-17T15:20:09.539Z,9.07
2019-05-17T15:22:41.479Z,6.77
2019-05-17T15:25:15.287Z,5.83
2019-05-17T15:27:47.248Z,7.27
2019-05-17T15:30:19.331Z,5.60
2019-05-17T15:32:51.545Z,8.90
2019-05-17T15:35:23.924Z,11.73
2019-05-17T15:37:56.177Z,21.60
2019-05-17T15:40:28.212Z,14.00
2019-05-17T15:43:00.401Z,13.30
2019-05-17T15:45:32.463Z,15.87
2019-05-17T15:48:04.889Z,4.47
2019-05-17T15:50:36.937Z,9.73
2019-05-17T15:53:09.419Z,15.37
2019-05-17T15:55:41.607Z,7.07
2019-05-17T15:58:13.651Z,13.10
2019-05-17T16:00:45.598Z,10.63
2019-05-17T16:03:17.879Z,9.57
2019-05-17T16:05:49.917Z,4.10
2019-05-17T16:08:22.083Z,4.27
2019-05-17T16:10:54.234Z,6.20
2019-05-17T16:13:26.904Z,6.70
2019-05-17T16:15:59.108Z,8.83
2019-05-17T16:18:31.243Z,8.10
2019-05-17T16:21:05.302Z,30.10
2019-05-17T16:23:37.514Z,13.00
2019-05-17T16:26:09.459Z,9.73
2019-05-17T16:28:41.540Z,12.93
2019-05-17T16:31:13.699Z,10.73
2019-05-17T16:33:45.661Z,8.20
2019-05-17T16:36:17.700Z,14.40
2019-05-17T16:38:49.774Z,11.77
2019-05-17T16:41:22.446Z,8.07
2019-05-17T16:43:54.500Z,17.03
2019-05-17T16:46:26.562Z,12.33
2019-05-17T16:48:58.986Z,13.53
2019-05-17T16:51:30.719Z,8.47
2019-05-17T16:54:02.503Z,16.20
2019-05-17T16:56:34.777Z,7.77
2019-05-17T16:59:07.109Z,7.73
2019-05-17T17:01:39.157Z,15.23
2019-05-17T17:04:11.203Z,7.23
2019-05-17T17:06:43.253Z,8.40
2019-05-17T17:09:15.510Z,7.83
2019-05-17T17:11:47.666Z,8.20
2019-05-17T17:14:19.963Z,14.67
2019-05-17T17:16:51.784Z,7.30
2019-05-17T17:19:23.879Z,13.60
2019-05-17T17:21:55.977Z,19.37
2019-05-17T17:24:28.279Z,15.40
2019-05-17T17:27:00.385Z,17.43
2019-05-17T17:29:32.566Z,25.83
2019-05-17T17:32:04.669Z,14.27
2019-05-17T17:34:36.925Z,11.83
2019-05-17T17:37:09.210Z,19.80
2019-05-17T17:39:41.524Z,27.33
2019-05-17T17:42:13.503Z,24.07
2019-05-17T17:44:45.716Z,16.50
2019-05-17T17:47:17.900Z,19.20
2019-05-17T17:49:49.962Z,20.10
2019-05-17T17:52:22.547Z,17.53
2019-05-17T17:54:54.757Z,12.77
2019-05-17T17:57:28.273Z,11.20
2019-05-17T18:00:01.783Z,16.67
2019-05-17T18:02:33.745Z,22.80
2019-05-17T18:05:06.409Z,24.40
2019-05-17T18:07:38.533Z,14.00
2019-05-17T18:10:11.231Z,8.33
2019-05-17T18:12:43.199Z,5.00
2019-05-17T18:15:17.153Z,8.20
2019-05-17T18:17:49.585Z,18.10
2019-05-17T18:20:21.782Z,15.13
2019-05-17T18:22:54.242Z,17.70
2019-05-17T18:25:26.058Z,17.07
2019-05-17T18:27:58.352Z,14.83
2019-05-17T18:30:30.343Z,17.43
2019-05-17T18:33:02.247Z,18.30
2019-05-17T18:35:34.370Z,13.83
2019-05-17T18:38:06.831Z,18.47
2019-05-17T18:40:38.984Z,18.07
2019-05-17T18:43:10.359Z,15.17
2019-05-17T18:45:45.435Z,20.17
2019-05-17T18:48:17.749Z,28.47
2019-05-17T18:50:50.533Z,30.17
2019-05-17T18:53:22.203Z,24.40
2019-05-17T18:55:54.143Z,21.13
2019-05-17T18:58:25.736Z,23.77
2019-05-17T19:00:57.877Z,23.23
2019-05-17T19:03:30.704Z,26.43
2019-05-17T19:06:02.688Z,30.77
2019-05-17T19:08:34.627Z,21.27
2019-05-17T19:11:06.848Z,25.23
2019-05-17T19:13:38.847Z,20.33
2019-05-17T19:16:10.926Z,16.67
2019-05-17T19:18:42.833Z,14.53
2019-05-17T19:21:14.757Z,16.87
2019-05-17T19:23:46.768Z,15.87
2019-05-17T19:26:19.459Z,14.30
2019-05-17T19:28:51.394Z,23.37
2019-05-17T19:31:23.809Z,21.97
2019-05-17T19:33:56.109Z,26.80
2019-05-17T19:36:28.248Z,22.53
2019-05-17T19:39:00.295Z,20.23
2019-05-17T19:41:33.334Z,22.87
2019-05-17T19:44:05.585Z,17.57
2019-05-17T19:46:37.827Z,25.30
2019-05-17T19:49:09.984Z,23.53
2019-05-17T19:51:42.003Z,21.67
2019-05-17T19:54:14.346Z,18.53
2019-05-17T19:56:46.283Z,20.43
2019-05-17T19:59:18.239Z,20.30
2019-05-17T20:01:50.297Z,24.80
2019-05-17T20:04:22.374Z,21.97
2019-05-17T20:06:54.353Z,18.97
2019-05-17T20:09:26.489Z,21.73
2019-05-17T20:11:58.663Z,19.90
2019-05-17T20:14:31.175Z,20.33
2019-05-17T20:17:03.312Z,26.30
2019-05-17T20:19:34.979Z,29.67
2019-05-17T20:22:06.673Z,32.83
2019-05-17T20:24:38.953Z,32.37
2019-05-17T20:27:12.053Z,26.90
2019-05-17T20:29:44.105Z,28.53
2019-05-17T20:32:16.012Z,28.10
2019-05-17T20:34:47.953Z,25.33
2019-05-17T20:37:19.939Z,37.10
2019-05-17T20:39:51.831Z,32.73
2019-05-17T20:42:23.815Z,27.37
2019-05-17T20:44:55.502Z,30.20
2019-05-17T20:47:27.168Z,29.50
2019-05-17T20:49:59.140Z,33.27
2019-05-17T20:52:31.259Z,20.77
2019-05-17T20:55:03.436Z,19.60
2019-05-17T20:57:35.259Z,20.53
2019-05-17T21:00:08.646Z,20.13
2019-05-17T21:02:40.581Z,23.43
2019-05-17T21:05:14.496Z,18.47
2019-05-17T21:07:46.487Z,17.97
2019-05-17T21:10:18.791Z,20.37
2019-05-17T21:12:50.696Z,20.30
2019-05-17T21:15:23.078Z,19.93
2019-05-17T21:17:55.455Z,22.03
2019-05-17T21:20:27.401Z,18.87
2019-05-17T21:22:59.664Z,18.53
2019-05-17T21:25:32.175Z,22.13
2019-05-17T21:28:04.915Z,20.30
2019-05-17T21:30:37.009Z,19.07
2019-05-17T21:33:08.819Z,20.60
2019-05-17T21:35:40.884Z,20.23
2019-05-17T21:38:14.742Z,21.13
2019-05-17T21:40:46.893Z,18.67
2019-05-17T21:43:18.860Z,22.70
2019-05-17T21:46:03.308Z,20.63
2019-05-17T21:48:26.133Z,21.83
2019-05-17T21:50:58.452Z,23.10
2019-05-17T21:53:30.594Z,19.50
2019-05-17T21:56:02.511Z,21.63
2019-05-17T21:58:34.181Z,21.80
2019-05-17T22:01:17.138Z,22.00
2019-05-17T22:03:49.157Z,22.97
2019-05-17T22:06:21.062Z,21.13
2019-05-17T22:08:53.154Z,21.27
2019-05-17T22:11:25.506Z,21.63
2019-05-17T22:13:57.353Z,25.20
2019-05-17T22:16:29.505Z,21.60
2019-05-17T22:19:01.376Z,21.80
2019-05-17T22:21:34.434Z,21.57
2019-05-17T22:24:06.600Z,23.93
2019-05-17T22:26:38.472Z,20.70
2019-05-17T22:29:10.281Z,21.70
2019-05-17T22:31:42.733Z,19.53
2019-05-17T22:34:14.674Z,20.73
2019-05-17T22:36:46.341Z,24.27
2019-05-17T22:39:18.171Z,24.83
2019-05-17T22:41:50.610Z,23.80
2019-05-17T22:44:22.559Z,20.83
2019-05-17T22:46:54.574Z,29.80
2019-05-17T22:49:26.565Z,28.07
2019-05-17T22:51:58.733Z,25.90
2019-05-17T22:54:30.777Z,26.23
2019-05-17T22:57:02.769Z,33.97
2019-05-17T22:59:34.433Z,25.53
2019-05-17T23:02:06.308Z,26.83
2019-05-17T23:04:38.144Z,25.63
2019-05-17T23:07:09.971Z,24.50
2019-05-17T23:09:41.615Z,25.90
2019-05-17T23:12:13.362Z,22.47
2019-05-17T23:14:45.653Z,21.77
2019-05-17T23:17:17.470Z,21.30
2019-05-17T23:19:49.328Z,21.60
2019-05-17T23:22:21.021Z,21.43
2019-05-17T23:24:52.887Z,22.00
2019-05-17T23:27:24.569Z,23.40
2019-05-17T23:29:56.561Z,21.33
2019-05-17T23:32:28.688Z,21.63
2019-05-17T23:35:00.392Z,24.17
2019-05-17T23:37:32.015Z,24.13
2019-05-17T23:40:03.820Z,21.00
2019-05-17T23:42:35.673Z,23.07
2019-05-17T23:45:07.958Z,24.43
2019-05-17T23:47:39.816Z,22.20
2019-05-17T23:50:11.915Z,21.73
2019-05-17T23:52:43.481Z,26.07
2019-05-17T23:55:15.278Z,26.23
2019-05-17T23:57:46.935Z,24.03
